Time;durP1;ratioP1;P1;durP2;ratioP2;P2;SDS_P1;SDS_P2;PMS_P1;PMS_P2;Temp;Humidity;BMP_temperature;BMP_pressure;BME280_temperature;BME280_humidity;BME280_pressure;Samples;Min_cycle;Max_cycle;Signal;HPM_P1;HPM_P2
2023/11/05 00:00:24;;;;;;;;;;;;;;;16.64;46.16;99675.19;5089940;28;1183;-50
2023/11/05 00:02:49;;;;;;;;;;;;;;;16.13;46.05;99669.13;5092535;28;1123;-53
2023/11/05 00:05:15;;;;;;;;;;;;;;;15.93;45.52;99670.84;5088159;28;1236;-50
2023/11/05 00:07:41;;;;;;;;;;;;;;;16.05;45.93;99674.28;5084895;28;1079;-48
2023/11/05 00:10:07;;;;;;;;;;;;;;;16.89;46.25;99677.44;5094133;28;1978;-50
2023/11/05 00:12:32;;;;;;;;;;;;;;;16.15;46.42;99677.75;5093560;28;1138;-47
2023/11/05 00:14:58;;;;;;;;;;;;;;;15.90;45.81;99679.88;5090560;28;1130;-50
2023/11/05 00:17:23;;;;;;;;;;;;;;;17.12;47.10;99683.31;5093967;28;1114;-49
2023/11/05 00:19:49;;;;;;;;;;;;;;;16.43;46.96;99685.94;5092774;28;1793;-52
2023/11/05 00:22:14;;;;;;;;;;;;;;;16.13;46.39;99685.84;5083696;28;1203;-47
2023/11/05 00:24:40;;;;;;;;;;;;;;;16.02;45.25;99689.47;5078607;28;1155;-42
2023/11/05 00:27:05;;;;;;;;;;;;;;;15.89;44.93;99688.84;5091869;28;1106;-46
2023/11/05 00:29:31;;;;;;;;;;;;;;;16.96;46.56;99691.84;5086730;28;1132;-48
2023/11/05 00:31:56;;;;;;;;;;;;;;;16.34;46.41;99700.88;5096545;28;1969;-46
2023/11/05 00:34:22;;;;;;;;;;;;;;;16.03;45.72;99698.28;5063502;28;1102;-49
2023/11/05 00:36:47;;;;;;;;;;;;;;;15.98;45.02;99706.63;5092941;28;1059;-51
2023/11/05 00:39:13;;;;;;;;;;;;;;;15.79;44.79;99700.25;5098376;28;986;-49
2023/11/05 00:41:39;;;;;;;;;;;;;;;15.80;43.89;99714.31;5085212;28;1094;-48
2023/11/05 00:44:05;;;;;;;;;;;;;;;16.93;45.92;99708.06;5097817;28;1090;-47
2023/11/05 00:46:31;;;;;;;;;;;;;;;16.42;46.61;99713.44;5088012;28;1107;-46
2023/11/05 00:48:56;;;;;;;;;;;;;;;15.96;46.24;99715.66;5067547;28;1078;-46
2023/11/05 00:51:22;;;;;;;;;;;;;;;15.94;45.04;99713.16;5093150;28;2474;-47
2023/11/05 00:53:47;;;;;;;;;;;;;;;16.49;46.46;99713.75;5113771;28;1068;-47
2023/11/05 00:56:13;;;;;;;;;;;;;;;16.95;46.87;99714.06;5097642;28;1109;-47
2023/11/05 00:58:38;;;;;;;;;;;;;;;16.23;46.70;99708.94;5108030;28;1020;-47
2023/11/05 01:01:04;;;;;;;;;;;;;;;16.09;45.95;99718.09;5073125;28;1094;-45
2023/11/05 01:03:29;;;;;;;;;;;;;;;15.89;45.10;99716.19;5091534;28;987;-47
2023/11/05 01:05:55;;;;;;;;;;;;;;;15.76;44.64;99710.28;5091100;28;1090;-44
2023/11/05 01:08:21;;;;;;;;;;;;;;;16.84;46.93;99720.34;5084669;28;1163;-48
2023/11/05 01:10:47;;;;;;;;;;;;;;;16.36;46.86;99719.31;5093991;28;1902;-43
2023/11/05 01:13:13;;;;;;;;;;;;;;;16.05;45.87;99720.19;5096682;28;1079;-47
2023/11/05 01:15:38;;;;;;;;;;;;;;;15.90;44.95;99739.09;5097673;28;1094;-46
2023/11/05 01:18:05;;;;;;;;;;;;;;;16.77;47.05;99746.63;5097816;28;1026;-48
2023/11/05 01:20:31;;;;;;;;;;;;;;;16.22;47.04;99739.09;5097756;28;1772;-46
2023/11/05 01:22:56;;;;;;;;;;;;;;;16.03;45.98;99746.84;5097649;28;1089;-45
2023/11/05 01:25:22;;;;;;;;;;;;;;;15.89;45.01;99748.03;5097414;28;1097;-46
2023/11/05 01:27:47;;;;;;;;;;;;;;;17.27;46.55;99748.50;5096187;28;1027;-48
2023/11/05 01:30:13;;;;;;;;;;;;;;;16.36;47.01;99752.00;5129973;27;1993;-46
2023/11/05 01:32:38;;;;;;;;;;;;;;;16.11;46.21;99754.16;5098221;28;1117;-47
2023/11/05 01:35:04;;;;;;;;;;;;;;;16.07;44.78;99755.38;5097226;28;1049;-48
2023/11/05 01:37:30;;;;;;;;;;;;;;;16.75;46.86;99753.03;5096378;28;1091;-47
2023/11/05 01:39:56;;;;;;;;;;;;;;;16.67;47.27;99756.38;5095561;28;1146;-45
2023/11/05 01:42:21;;;;;;;;;;;;;;;16.24;46.32;99756.56;5097642;28;1217;-47
2023/11/05 01:44:47;;;;;;;;;;;;;;;16.09;45.40;99760.56;5097233;28;1018;-48
2023/11/05 01:47:12;;;;;;;;;;;;;;;15.84;45.04;99762.66;5097112;28;1140;-47
2023/11/05 01:49:38;;;;;;;;;;;;;;;15.88;44.61;99766.72;5100991;28;1842;-46
2023/11/05 01:52:03;;;;;;;;;;;;;;;17.32;46.43;99763.00;5095604;28;1909;-49
2023/11/05 01:54:29;;;;;;;;;;;;;;;16.42;46.75;99763.03;5096208;28;1050;-47
2023/11/05 01:56:54;;;;;;;;;;;;;;;16.08;46.18;99767.66;5097282;28;1107;-48
2023/11/05 01:59:20;;;;;;;;;;;;;;;15.84;45.47;99768.78;5096473;28;1026;-48
2023/11/05 02:01:45;;;;;;;;;;;;;;;15.77;44.53;99764.97;5095936;28;1111;-48
2023/11/05 02:04:11;;;;;;;;;;;;;;;15.83;43.87;99769.75;5095398;28;1172;-46
2023/11/05 02:06:37;;;;;;;;;;;;;;;16.83;46.29;99776.28;5095715;28;1042;-50
2023/11/05 02:09:03;;;;;;;;;;;;;;;16.21;46.41;99778.06;5095941;28;1364;-49
2023/11/05 02:11:29;;;;;;;;;;;;;;;16.07;46.35;99781.91;5129200;27;1900;-51
2023/11/05 02:13:55;;;;;;;;;;;;;;;17.15;46.78;99788.47;5095293;28;1244;-45
2023/11/05 02:16:21;;;;;;;;;;;;;;;16.33;47.11;99785.94;5129837;27;1181;-50
2023/11/05 02:18:47;;;;;;;;;;;;;;;16.12;45.92;99787.66;5096708;28;1030;-47
2023/11/05 02:21:13;;;;;;;;;;;;;;;15.95;45.08;99796.22;5096605;28;1870;-50
2023/11/05 02:23:39;;;;;;;;;;;;;;;16.14;46.43;99795.50;5094979;28;1070;-48
2023/11/05 02:26:04;;;;;;;;;;;;;;;16.63;46.76;99803.63;5095371;28;1042;-47
2023/11/05 02:28:33;;;;;;;;;;;;;;;16.12;45.87;99810.69;5095525;28;1149;-46
2023/11/05 02:30:59;;;;;;;;;;;;;;;15.93;45.29;99804.31;5094874;28;1980;-47
2023/11/05 02:33:24;;;;;;;;;;;;;;;16.52;46.69;99809.88;5095050;28;1035;-48
2023/11/05 02:35:50;;;;;;;;;;;;;;;16.80;47.15;99806.59;5096545;28;1129;-51
2023/11/05 02:38:15;;;;;;;;;;;;;;;16.32;46.71;99808.97;5096436;28;1031;-46
2023/11/05 02:40:41;;;;;;;;;;;;;;;16.04;46.24;99811.38;5096136;28;1211;-49
2023/11/05 02:43:06;;;;;;;;;;;;;;;15.95;44.97;99814.78;5094946;28;1170;-45
2023/11/05 02:45:32;;;;;;;;;;;;;;;15.82;44.67;99799.91;5094969;28;1078;-46
2023/11/05 02:47:57;;;;;;;;;;;;;;;15.79;44.20;99803.69;5094569;28;1133;-45
2023/11/05 02:50:23;;;;;;;;;;;;;;;17.24;46.26;99806.25;5094978;28;2473;-50
2023/11/05 02:52:49;;;;;;;;;;;;;;;16.30;46.69;99813.56;5096174;28;1007;-54
2023/11/05 02:55:14;;;;;;;;;;;;;;;16.02;46.06;99808.84;5096253;28;1141;-49
2023/11/05 02:57:40;;;;;;;;;;;;;;;15.89;45.26;99819.63;5096209;28;1194;-48
2023/11/05 03:00:07;;;;;;;;;;;;;;;16.49;46.44;99809.31;5095622;28;1122;-48
2023/11/05 03:02:33;;;;;;;;;;;;;;;16.65;46.69;99804.31;5094838;28;1228;-47
2023/11/05 03:04:59;;;;;;;;;;;;;;;16.16;46.27;99801.50;5095943;28;1130;-48
2023/11/05 03:07:24;;;;;;;;;;;;;;;15.89;45.56;99809.03;5095594;28;1042;-48
2023/11/05 03:09:50;;;;;;;;;;;;;;;17.27;46.69;99825.56;5095565;28;1145;-48
2023/11/05 03:12:16;;;;;;;;;;;;;;;16.38;46.85;99818.22;5085194;28;1901;-46
2023/11/05 03:14:41;;;;;;;;;;;;;;;16.18;46.16;99828.75;5070803;28;1154;-49
2023/11/05 03:17:07;;;;;;;;;;;;;;;15.96;45.25;99821.75;5088667;28;983;-46
2023/11/05 03:19:32;;;;;;;;;;;;;;;15.89;44.58;99813.50;5091799;28;1783;-49
2023/11/05 03:21:58;;;;;;;;;;;;;;;15.65;44.71;99815.44;5070457;28;1070;-49
2023/11/05 03:24:23;;;;;;;;;;;;;;;15.68;44.10;99817.00;5086141;28;1200;-48
2023/11/05 03:26:49;;;;;;;;;;;;;;;17.01;46.00;99826.91;5083206;28;1107;-45
2023/11/05 03:29:15;;;;;;;;;;;;;;;16.10;46.35;99818.78;5081122;28;1099;-49
2023/11/05 03:31:40;;;;;;;;;;;;;;;15.83;45.90;99824.63;5083193;28;1893;-50
2023/11/05 03:34:06;;;;;;;;;;;;;;;16.20;46.17;99818.84;5089088;28;1205;-48
2023/11/05 03:36:31;;;;;;;;;;;;;;;17.05;46.65;99827.47;5068453;28;1031;-49
2023/11/05 03:38:57;;;;;;;;;;;;;;;16.17;46.73;99819.09;5094803;28;1004;-46
2023/11/05 03:41:23;;;;;;;;;;;;;;;15.99;45.60;99819.72;5083567;28;1046;-48
2023/11/05 03:43:48;;;;;;;;;;;;;;;15.85;45.17;99820.03;5109258;28;1148;-49
2023/11/05 03:46:14;;;;;;;;;;;;;;;16.71;45.97;99815.38;5095318;28;1069;-49
2023/11/05 03:48:40;;;;;;;;;;;;;;;16.16;46.11;99820.91;5089186;28;1066;-49
2023/11/05 03:51:09;;;;;;;;;;;;;;;15.96;45.05;99817.31;5073336;28;2509;-49
2023/11/05 03:53:34;;;;;;;;;;;;;;;17.11;46.95;99819.81;5076992;28;1183;-49
2023/11/05 03:56:00;;;;;;;;;;;;;;;16.32;46.99;99813.44;5095729;28;1015;-48
2023/11/05 03:58:25;;;;;;;;;;;;;;;16.12;45.91;99816.00;5095371;28;1132;-47
2023/11/05 04:00:51;;;;;;;;;;;;;;;16.01;44.71;99809.84;5064716;28;1077;-47
2023/11/05 04:03:16;;;;;;;;;;;;;;;16.20;45.23;99826.78;5070718;28;1381;-45
2023/11/05 04:05:42;;;;;;;;;;;;;;;16.82;46.27;99827.69;5088629;28;1228;-48
2023/11/05 04:08:07;;;;;;;;;;;;;;;16.14;46.36;99816.72;5075954;28;1002;-47
2023/11/05 04:10:33;;;;;;;;;;;;;;;16.10;45.50;99815.31;5087179;28;1975;-50
2023/11/05 04:12:58;;;;;;;;;;;;;;;16.26;46.57;99820.97;5088456;28;1130;-45
2023/11/05 04:15:24;;;;;;;;;;;;;;;16.43;46.55;99813.38;5095450;28;1042;-49
2023/11/05 04:17:49;;;;;;;;;;;;;;;16.18;46.02;99812.00;5081860;28;1014;-46
2023/11/05 04:20:15;;;;;;;;;;;;;;;15.85;45.44;99812.09;5086973;28;2384;-45
2023/11/05 04:22:45;;;;;;;;;;;;;;;15.78;44.90;99815.22;5096920;28;1078;-48
2023/11/05 04:25:10;;;;;;;;;;;;;;;16.01;45.59;99817.78;5097408;28;859;-47
2023/11/05 04:27:36;;;;;;;;;;;;;;;16.33;46.47;99825.75;5084744;28;1140;-47
2023/11/05 04:30:01;;;;;;;;;;;;;;;16.04;45.49;99811.38;5098792;28;1902;-46
2023/11/05 04:32:27;;;;;;;;;;;;;;;15.83;44.92;99822.78;5098354;28;1133;-40
2023/11/05 04:34:52;;;;;;;;;;;;;;;16.92;46.07;99814.44;5099093;28;1102;-43
2023/11/05 04:37:18;;;;;;;;;;;;;;;16.66;46.34;99821.09;5089567;28;1054;-44
2023/11/05 04:39:43;;;;;;;;;;;;;;;16.16;46.15;99822.75;5086536;28;1088;-42
2023/11/05 04:42:10;;;;;;;;;;;;;;;15.98;44.97;99822.47;5097183;28;1130;-49
2023/11/05 04:44:37;;;;;;;;;;;;;;;15.69;44.82;99816.03;5098524;28;1038;-48
2023/11/05 04:47:03;;;;;;;;;;;;;;;16.97;46.13;99825.50;5090842;28;1066;-44
2023/11/05 04:49:29;;;;;;;;;;;;;;;16.23;46.43;99826.53;5064630;28;1898;-44
2023/11/05 04:51:54;;;;;;;;;;;;;;;15.95;45.80;99820.91;5090019;28;1890;-42
2023/11/05 04:54:20;;;;;;;;;;;;;;;17.24;46.13;99826.66;5084708;28;1054;-46
2023/11/05 04:56:46;;;;;;;;;;;;;;;16.36;46.83;99831.63;5098385;28;1054;-44
2023/11/05 04:59:11;;;;;;;;;;;;;;;16.02;46.04;99823.91;5092445;28;1013;-45
2023/11/05 05:01:37;;;;;;;;;;;;;;;16.34;46.21;99824.75;5079298;28;948;-46
2023/11/05 05:04:03;;;;;;;;;;;;;;;16.88;47.00;99838.63;5060096;28;1075;-46
2023/11/05 05:06:29;;;;;;;;;;;;;;;16.37;46.29;99838.63;5084794;28;1020;-45
2023/11/05 05:08:54;;;;;;;;;;;;;;;16.11;45.74;99841.72;5089639;28;1078;-45
2023/11/05 05:11:20;;;;;;;;;;;;;;;15.96;44.96;99843.84;5094104;28;1977;-45
2023/11/05 05:13:45;;;;;;;;;;;;;;;15.91;44.39;99857.47;5097769;28;841;-44
2023/11/05 05:16:12;;;;;;;;;;;;;;;16.87;46.27;99846.72;5097629;28;1045;-45
2023/11/05 05:18:39;;;;;;;;;;;;;;;16.36;46.49;99834.28;5097631;28;998;-43
2023/11/05 05:21:05;;;;;;;;;;;;;;;16.06;46.00;99854.53;5097770;28;1800;-46
2023/11/05 05:23:30;;;;;;;;;;;;;;;15.97;45.31;99863.22;5098192;28;943;-43
2023/11/05 05:25:55;;;;;;;;;;;;;;;15.83;44.46;99862.56;5097313;28;1101;-44
2023/11/05 05:28:21;;;;;;;;;;;;;;;16.79;46.09;99871.31;5097747;28;1070;-46
2023/11/05 05:30:47;;;;;;;;;;;;;;;16.42;46.75;99875.38;5097935;28;1972;-45
2023/11/05 05:33:12;;;;;;;;;;;;;;;17.68;44.71;99881.25;5097601;28;1039;-48
2023/11/05 05:35:38;;;;;;;;;;;;;;;17.38;45.11;99884.72;5097552;28;1149;-44
2023/11/05 05:38:04;;;;;;;;;;;;;;;17.13;45.72;99892.25;5097176;28;961;-43
2023/11/05 05:40:29;;;;;;;;;;;;;;;16.91;46.59;99881.84;5095906;28;1178;-45
2023/11/05 05:42:55;;;;;;;;;;;;;;;16.73;46.92;99888.63;5080439;28;1087;-44
2023/11/05 05:45:20;;;;;;;;;;;;;;;16.63;47.08;99877.97;5084743;28;1117;-44
2023/11/05 05:47:46;;;;;;;;;;;;;;;16.55;47.40;99885.75;5097261;28;1022;-47
2023/11/05 05:50:12;;;;;;;;;;;;;;;16.42;47.86;99888.66;5096364;28;2209;-45
2023/11/05 05:52:37;;;;;;;;;;;;;;;16.35;47.78;99887.50;5097292;28;1046;-43
2023/11/05 05:55:04;;;;;;;;;;;;;;;16.20;48.21;99887.00;5096712;28;1042;-43
2023/11/05 05:57:30;;;;;;;;;;;;;;;17.11;46.62;99886.25;5097408;28;1030;-48
2023/11/05 05:59:56;;;;;;;;;;;;;;;16.62;47.64;99886.06;5096924;28;1150;-47
2023/11/05 06:02:21;;;;;;;;;;;;;;;16.41;47.98;99876.34;5096955;28;848;-45
2023/11/05 06:04:47;;;;;;;;;;;;;;;16.24;48.63;99880.44;5096946;28;1089;-43
2023/11/05 06:07:13;;;;;;;;;;;;;;;16.34;48.62;99876.03;5097340;28;1150;-41
2023/11/05 06:09:38;;;;;;;;;;;;;;;17.35;46.45;99870.91;5096934;28;1225;-45
2023/11/05 06:12:04;;;;;;;;;;;;;;;16.81;47.92;99884.47;5097139;28;1971;-44
2023/11/05 06:14:29;;;;;;;;;;;;;;;16.55;48.29;99879.63;5096674;28;1232;-45
2023/11/05 06:16:55;;;;;;;;;;;;;;;16.35;48.74;99874.25;5096848;28;904;-46
2023/11/05 06:19:20;;;;;;;;;;;;;;;17.15;47.57;99862.88;5096755;28;1779;-44
2023/11/05 06:21:46;;;;;;;;;;;;;;;16.95;47.77;99872.63;5096561;28;1175;-45
2023/11/05 06:24:11;;;;;;;;;;;;;;;16.61;48.53;99884.41;5096828;28;1046;-44
2023/11/05 06:26:44;;;;;;;;;;;;;;;16.40;48.93;99885.28;5096472;28;857;-45
2023/11/05 06:29:09;;;;;;;;;;;;;;;17.19;47.62;99879.41;5096568;28;1110;-44
2023/11/05 06:31:35;;;;;;;;;;;;;;;16.70;48.72;99872.97;5096509;28;1897;-45
2023/11/05 06:34:00;;;;;;;;;;;;;;;16.50;49.03;99875.53;5096354;28;1050;-44
2023/11/05 06:36:26;;;;;;;;;;;;;;;16.83;48.65;99883.34;5096481;28;1042;-47
2023/11/05 06:38:51;;;;;;;;;;;;;;;17.25;47.71;99885.00;5096047;28;887;-47
2023/11/05 06:41:17;;;;;;;;;;;;;;;16.77;48.74;99884.75;5096041;28;1074;-45
2023/11/05 06:43:42;;;;;;;;;;;;;;;16.60;49.13;99898.66;5094780;28;1133;-46
2023/11/05 06:46:08;;;;;;;;;;;;;;;16.41;49.34;99894.94;5096213;28;1157;-49
2023/11/05 06:48:34;;;;;;;;;;;;;;;17.56;47.35;99885.88;5096306;28;1082;-45
2023/11/05 06:50:59;;;;;;;;;;;;;;;17.13;48.40;99884.28;5095531;28;2473;-47
2023/11/05 06:53:25;;;;;;;;;;;;;;;16.74;48.90;99892.97;5096674;28;1121;-43
2023/11/05 06:55:50;;;;;;;;;;;;;;;16.60;49.08;99893.34;5096215;28;1103;-45
2023/11/05 06:58:17;;;;;;;;;;;;;;;16.46;49.55;99897.19;5095841;28;1034;-46
2023/11/05 07:00:46;;;;;;;;;;;;;;;16.33;49.80;99895.56;5096154;28;1010;-45
2023/11/05 07:03:11;;;;;;;;;;;;;;;17.18;48.86;99901.66;5095921;28;895;-48
2023/11/05 07:05:37;;;;;;;;;;;;;;;17.23;48.37;99900.25;5095888;28;1022;-44
2023/11/05 07:08:03;;;;;;;;;;;;;;;16.85;49.02;99899.16;5094808;28;1182;-46
2023/11/05 07:10:28;;;;;;;;;;;;;;;16.63;49.76;99898.38;5095024;28;1902;-44
2023/11/05 07:12:54;;;;;;;;;;;;;;;16.46;49.58;99898.03;5096033;28;1046;-43
2023/11/05 07:15:19;;;;;;;;;;;;;;;16.39;49.65;99904.84;5095846;28;1051;-45
2023/11/05 07:17:48;;;;;;;;;;;;;;;16.30;49.79;99909.13;5095782;28;979;-48
2023/11/05 07:20:13;;;;;;;;;;;;;;;17.20;48.96;99897.88;5095728;28;1795;-45
2023/11/05 07:22:39;;;;;;;;;;;;;;;16.80;49.57;99904.03;5095904;28;1236;-44
2023/11/05 07:25:05;;;;;;;;;;;;;;;16.51;49.93;99901.13;5096147;28;1034;-42
2023/11/05 07:27:32;;;;;;;;;;;;;;;17.23;48.97;99899.44;5095604;28;1030;-44
2023/11/05 07:29:57;;;;;;;;;;;;;;;16.96;49.45;99893.75;5096023;28;1038;-47
2023/11/05 07:32:23;;;;;;;;;;;;;;;16.69;50.02;99897.84;5083567;28;1995;-46
2023/11/05 07:34:51;;;;;;;;;;;;;;;16.67;50.43;99898.94;5079253;28;1132;-48
2023/11/05 07:37:17;;;;;;;;;;;;;;;17.10;49.33;99903.16;5093035;28;1034;-49
2023/11/05 07:39:42;;;;;;;;;;;;;;;16.76;49.95;99895.50;5095476;28;1128;-47
2023/11/05 07:42:08;;;;;;;;;;;;;;;16.55;50.29;99891.06;5095725;28;1022;-47
2023/11/05 07:44:33;;;;;;;;;;;;;;;16.39;50.49;99881.78;5096233;28;1201;-46
2023/11/05 07:46:59;;;;;;;;;;;;;;;16.26;50.55;99875.84;5095630;28;1038;-49
2023/11/05 07:49:24;;;;;;;;;;;;;;;16.77;50.44;99863.50;5095543;28;2408;-45
2023/11/05 07:51:50;;;;;;;;;;;;;;;17.05;49.64;99857.53;5094964;28;1910;-46
2023/11/05 07:54:16;;;;;;;;;;;;;;;16.66;50.23;99866.25;5098656;28;1042;-44
2023/11/05 07:56:42;;;;;;;;;;;;;;;16.46;50.84;99860.88;5099618;28;1114;-47
2023/11/05 07:59:07;;;;;;;;;;;;;;;16.36;50.70;99857.31;5099713;28;1073;-45
2023/11/05 08:01:33;;;;;;;;;;;;;;;16.38;51.09;99864.16;5099168;28;1134;-44
2023/11/05 08:03:59;;;;;;;;;;;;;;;17.25;49.70;99860.25;5099581;28;1102;-48
2023/11/05 08:06:24;;;;;;;;;;;;;;;16.79;50.53;99858.03;5099428;28;1375;-47
2023/11/05 08:08:51;;;;;;;;;;;;;;;16.52;51.13;99846.22;5099339;28;1046;-49
2023/11/05 08:11:17;;;;;;;;;;;;;;;16.34;51.26;99846.84;5098613;28;1902;-49
2023/11/05 08:13:43;;;;;;;;;;;;;;;16.31;51.07;99844.47;5099026;28;1276;-48
2023/11/05 08:16:08;;;;;;;;;;;;;;;16.57;51.40;99841.34;5098855;28;1011;-42
2023/11/05 08:18:34;;;;;;;;;;;;;;;17.29;49.61;99842.19;5099503;28;1113;-45
2023/11/05 08:21:00;;;;;;;;;;;;;;;16.84;50.81;99837.22;5099128;28;1927;-47
2023/11/05 08:23:25;;;;;;;;;;;;;;;16.57;50.80;99824.56;5098943;28;998;-45
2023/11/05 08:25:50;;;;;;;;;;;;;;;16.47;51.03;99836.00;5098419;28;986;-45
2023/11/05 08:28:16;;;;;;;;;;;;;;;16.32;51.10;99834.66;5098966;28;1106;-49
2023/11/05 08:30:42;;;;;;;;;;;;;;;16.65;51.47;99833.53;5098678;28;1973;-48
2023/11/05 08:33:07;;;;;;;;;;;;;;;17.50;49.66;99834.91;5098662;28;1251;-43
2023/11/05 08:35:33;;;;;;;;;;;;;;;16.92;50.82;99833.88;5098906;28;1109;-46
2023/11/05 08:37:58;;;;;;;;;;;;;;;16.70;51.04;99832.31;5098467;28;1126;-43
2023/11/05 08:40:25;;;;;;;;;;;;;;;16.51;51.07;99820.66;5098422;28;1074;-47
2023/11/05 08:42:51;;;;;;;;;;;;;;;17.06;51.20;99823.84;5098534;28;1030;-46
2023/11/05 08:45:17;;;;;;;;;;;;;;;17.20;50.46;99819.97;5098223;28;1069;-49
2023/11/05 08:47:42;;;;;;;;;;;;;;;16.85;50.98;99812.34;5098978;28;1058;-45
2023/11/05 08:50:08;;;;;;;;;;;;;;;16.67;50.92;99819.28;5098123;28;2254;-45
2023/11/05 08:52:34;;;;;;;;;;;;;;;16.48;51.23;99813.78;5087646;28;1379;-45
2023/11/05 08:54:59;;;;;;;;;;;;;;;16.37;51.07;99830.66;5096164;28;1031;-44
2023/11/05 08:57:25;;;;;;;;;;;;;;;16.27;51.34;99829.75;5098168;28;1209;-46
2023/11/05 08:59:51;;;;;;;;;;;;;;;16.94;51.37;99812.47;5098214;28;1018;-48
2023/11/05 09:02:16;;;;;;;;;;;;;;;16.94;50.91;99808.03;5098125;28;1134;-48
2023/11/05 09:04:42;;;;;;;;;;;;;;;16.62;51.54;99820.53;5097710;28;1079;-47
2023/11/05 09:07:10;;;;;;;;;;;;;;;16.46;51.31;99809.59;5097898;28;1094;-45
2023/11/05 09:09:36;;;;;;;;;;;;;;;16.38;51.09;99807.63;5098157;28;1070;-48
2023/11/05 09:12:03;;;;;;;;;;;;;;;17.01;51.22;99805.66;5098085;28;1972;-48
2023/11/05 09:14:28;;;;;;;;;;;;;;;17.21;50.53;99808.34;5097119;28;1178;-43
2023/11/05 09:16:54;;;;;;;;;;;;;;;16.77;51.30;99794.44;5088137;28;1086;-42
2023/11/05 09:19:19;;;;;;;;;;;;;;;16.59;51.50;99770.38;5097828;28;1838;-45
2023/11/05 09:21:45;;;;;;;;;;;;;;;16.48;51.38;99773.94;5098165;28;1134;-46
2023/11/05 09:24:11;;;;;;;;;;;;;;;16.85;51.78;99772.50;5097994;28;1109;-44
2023/11/05 09:26:37;;;;;;;;;;;;;;;17.24;50.86;99757.56;5097499;28;1019;-45
2023/11/05 09:29:03;;;;;;;;;;;;;;;16.80;51.38;99763.28;5097661;28;1147;-45
2023/11/05 09:31:28;;;;;;;;;;;;;;;16.63;51.52;99762.97;5089754;28;1901;-46
2023/11/05 09:33:54;;;;;;;;;;;;;;;16.52;51.17;99745.31;5091529;28;1014;-50
2023/11/05 09:36:19;;;;;;;;;;;;;;;17.33;50.95;99742.59;5097737;28;1043;-45
2023/11/05 09:38:45;;;;;;;;;;;;;;;17.23;50.88;99738.13;5097545;28;1007;-46
2023/11/05 09:41:11;;;;;;;;;;;;;;;16.91;51.37;99738.38;5097228;28;1150;-48
2023/11/05 09:43:36;;;;;;;;;;;;;;;16.70;51.60;99726.09;5097495;28;1184;-47
2023/11/05 09:46:04;;;;;;;;;;;;;;;16.59;51.58;99711.09;5097532;28;1130;-49
2023/11/05 09:48:29;;;;;;;;;;;;;;;16.49;51.42;99709.28;5097501;28;1058;-49
2023/11/05 09:50:55;;;;;;;;;;;;;;;16.40;51.22;99699.47;5105339;28;2383;-49
2023/11/05 09:53:21;;;;;;;;;;;;;;;16.37;51.74;99687.31;5090939;28;1383;-51
2023/11/05 09:55:46;;;;;;;;;;;;;;;17.47;50.67;99674.81;5092129;28;1285;-49
2023/11/05 09:58:15;;;;;;;;;;;;;;;17.04;51.53;99666.34;5096951;28;1138;-45
2023/11/05 10:00:41;;;;;;;;;;;;;;;16.79;51.70;99669.47;5097262;28;999;-44
2023/11/05 10:03:10;;;;;;;;;;;;;;;16.59;51.53;99669.47;5095212;28;1105;-47
2023/11/05 10:05:36;;;;;;;;;;;;;;;16.84;52.05;99661.91;5096979;28;1038;-46
2023/11/05 10:08:05;;;;;;;;;;;;;;;17.46;50.64;99651.91;5097121;28;1103;-46
2023/11/05 10:10:30;;;;;;;;;;;;;;;16.98;51.44;99657.97;5096287;28;1912;-47
2023/11/05 10:12:56;;;;;;;;;;;;;;;16.80;51.65;99659.69;5096600;28;979;-46
2023/11/05 10:15:24;;;;;;;;;;;;;;;16.63;51.78;99646.94;5095972;28;1050;-46
2023/11/05 10:17:50;;;;;;;;;;;;;;;16.52;51.55;99626.69;5095926;28;1241;-46
2023/11/05 10:20:16;;;;;;;;;;;;;;;16.45;51.43;99619.44;5096509;28;1836;-50
2023/11/05 10:22:45;;;;;;;;;;;;;;;16.38;51.25;99617.31;5096598;28;1115;-47
2023/11/05 10:25:20;;;;;;;;;;;;;;;16.39;52.31;99611.06;5096765;28;1039;-47
2023/11/05 10:27:45;;;;;;;;;;;;;;;17.21;51.29;99612.53;5096530;28;1061;-49
2023/11/05 10:30:11;;;;;;;;;;;;;;;16.78;51.83;99609.38;5096890;28;1976;-49
2023/11/05 10:32:37;;;;;;;;;;;;;;;16.61;51.98;99593.16;5096625;28;1105;-48
2023/11/05 10:35:03;;;;;;;;;;;;;;;16.48;51.75;99596.09;5096487;28;963;-47
2023/11/05 10:37:29;;;;;;;;;;;;;;;16.67;52.65;99591.75;5096374;28;1185;-50
2023/11/05 10:39:55;;;;;;;;;;;;;;;17.33;51.29;99583.09;5087908;28;988;-47
2023/11/05 10:42:20;;;;;;;;;;;;;;;16.89;51.98;99580.00;5096189;28;1213;-48
2023/11/05 10:44:45;;;;;;;;;;;;;;;16.70;51.86;99567.56;5082923;28;1078;-49
2023/11/05 10:47:11;;;;;;;;;;;;;;;16.57;51.65;99551.94;5096187;28;1087;-46
2023/11/05 10:49:37;;;;;;;;;;;;;;;16.49;51.71;99547.34;5097445;28;2385;-47
2023/11/05 10:52:04;;;;;;;;;;;;;;;16.40;51.81;99550.81;5094409;28;1988;-46
2023/11/05 10:54:30;;;;;;;;;;;;;;;16.39;52.21;99544.69;5096331;28;1107;-46
2023/11/05 10:56:55;;;;;;;;;;;;;;;17.38;51.46;99523.19;5095156;28;1038;-46
2023/11/05 10:59:34;;;;;;;;;;;;;;;16.92;51.85;99533.69;5096311;28;1122;-47
2023/11/05 11:02:00;;;;;;;;;;;;;;;16.69;51.89;99525.22;5096220;28;1038;-47
2023/11/05 11:04:26;;;;;;;;;;;;;;;16.56;51.89;99515.75;5095715;28;847;-47
2023/11/05 11:06:51;;;;;;;;;;;;;;;17.11;52.26;99532.00;5094956;28;1060;-48
2023/11/05 11:09:18;;;;;;;;;;;;;;;17.07;51.66;99533.22;5096238;28;1201;-47
2023/11/05 11:11:44;;;;;;;;;;;;;;;16.75;52.47;99519.34;5095708;28;1897;-47
2023/11/05 11:14:10;;;;;;;;;;;;;;;16.65;51.83;99528.16;5095891;28;1225;-46
2023/11/05 11:16:36;;;;;;;;;;;;;;;16.51;51.92;99518.84;5096035;28;937;-50
2023/11/05 11:19:09;;;;;;;;;;;;;;;16.46;51.98;99523.75;5094762;28;1146;-48
2023/11/05 11:21:38;;;;;;;;;;;;;;;17.29;51.92;99513.44;5085291;28;1117;-48
2023/11/05 11:24:23;;;;;;;;;;;;;;;17.12;51.87;99510.59;5095791;28;1062;-46
2023/11/05 11:26:48;;;;;;;;;;;;;;;16.80;52.12;99500.34;5097207;28;1120;-47
2023/11/05 11:29:14;;;;;;;;;;;;;;;16.67;52.10;99485.53;5100314;28;835;-48
2023/11/05 11:31:39;;;;;;;;;;;;;;;16.47;51.96;99490.91;5131619;27;1898;-46
2023/11/05 11:34:05;;;;;;;;;;;;;;;16.46;51.83;99485.72;5099718;28;1170;-44
2023/11/05 11:36:31;;;;;;;;;;;;;;;16.37;51.87;99482.94;5099724;28;1109;-47
2023/11/05 11:38:57;;;;;;;;;;;;;;;16.47;51.61;99487.41;5099149;28;1085;-49
2023/11/05 11:41:22;;;;;;;;;;;;;;;17.05;52.46;99490.84;5100060;28;1101;-49
2023/11/05 11:43:48;;;;;;;;;;;;;;;17.10;52.17;99488.63;5098660;28;1109;-42
2023/11/05 11:46:15;;;;;;;;;;;;;;;16.75;52.32;99480.34;5100274;28;1146;-46
2023/11/05 11:48:40;;;;;;;;;;;;;;;16.64;52.11;99477.88;5100062;28;1146;-45
2023/11/05 11:51:08;;;;;;;;;;;;;;;16.48;52.06;99466.00;5098986;28;2487;-49
2023/11/05 11:53:37;;;;;;;;;;;;;;;16.37;51.77;99463.53;5099317;28;1126;-48
2023/11/05 11:56:03;;;;;;;;;;;;;;;16.33;52.11;99468.28;5094277;28;1027;-48
2023/11/05 11:58:29;;;;;;;;;;;;;;;16.27;51.84;99459.09;5089878;28;1067;-46
2023/11/05 12:00:55;;;;;;;;;;;;;;;16.97;52.37;99465.03;5099601;28;1123;-45
2023/11/05 12:03:21;;;;;;;;;;;;;;;17.19;51.92;99463.00;5099585;28;1062;-49
2023/11/05 12:05:46;;;;;;;;;;;;;;;16.79;52.57;99480.06;5098949;28;995;-45
2023/11/05 12:08:13;;;;;;;;;;;;;;;16.60;52.41;99464.03;5099405;28;1170;-48
2023/11/05 12:10:41;;;;;;;;;;;;;;;16.48;52.07;99460.72;5098833;28;1964;-48
2023/11/05 12:13:06;;;;;;;;;;;;;;;16.50;53.04;99460.56;5061492;28;1066;-49
2023/11/05 12:15:32;;;;;;;;;;;;;;;17.56;51.46;99461.25;5104339;28;1042;-43
2023/11/05 12:17:57;;;;;;;;;;;;;;;17.06;52.19;99465.13;5098114;28;971;-44
2023/11/05 12:20:23;;;;;;;;;;;;;;;16.78;52.45;99463.28;5087800;28;1812;-47
2023/11/05 12:22:48;;;;;;;;;;;;;;;16.64;51.99;99464.59;5097842;28;1129;-47
2023/11/05 12:25:14;;;;;;;;;;;;;;;16.51;52.19;99448.97;5086181;28;1196;-46
2023/11/05 12:27:46;;;;;;;;;;;;;;;16.42;52.07;99442.69;5096701;28;1186;-47
2023/11/05 12:30:12;;;;;;;;;;;;;;;16.32;51.92;99440.06;5085090;28;1073;-50
2023/11/05 12:32:39;;;;;;;;;;;;;;;17.11;52.75;99441.66;5084982;28;1965;-46
2023/11/05 12:35:05;;;;;;;;;;;;;;;17.17;51.98;99437.53;5095185;28;1203;-46
2023/11/05 12:37:31;;;;;;;;;;;;;;;16.81;52.33;99446.22;5071211;28;1134;-47
2023/11/05 12:39:56;;;;;;;;;;;;;;;16.63;52.31;99445.16;5093247;28;1014;-47
2023/11/05 12:42:22;;;;;;;;;;;;;;;16.53;52.20;99439.88;5091924;28;1138;-46
2023/11/05 12:44:47;;;;;;;;;;;;;;;16.47;51.90;99436.97;5085448;28;1111;-48
2023/11/05 12:47:13;;;;;;;;;;;;;;;16.61;52.85;99417.94;5084827;28;875;-46
2023/11/05 12:49:38;;;;;;;;;;;;;;;17.41;51.81;99422.84;5073544;28;1856;-45